Time;durP1;ratioP1;P1;durP2;ratioP2;P2;SDS_P1;SDS_P2;PMS_P1;PMS_P2;Temp;Humidity;BMP_temperature;BMP_pressure;BME280_temperature;BME280_humidity;BME280_pressure;Samples;Min_cycle;Max_cycle;Signal;HPM_P1;HPM_P2
2022/08/12 00:43:25;;;;;;;6.57;2.80;;;;;;;;;;5048713;28;20563;-67
2022/08/12 00:48:35;;;;;;;8.30;3.40;;;;;;;;;;5057162;28;20239;-67
2022/08/12 00:51:02;;;;;;;3.40;2.90;;;;;;;;;;5063054;28;20184;-67
2022/08/12 00:53:29;;;;;;;3.85;3.17;;;;;;;;;;5063420;28;20185;-67
2022/08/12 00:55:57;;;;;;;5.25;3.20;;;;;;;;;;5054655;28;20181;-67
2022/08/12 00:58:24;;;;;;;8.32;3.53;;;;;;;;;;5064611;28;20181;-67
2022/08/12 01:00:50;;;;;;;5.38;3.42;;;;;;;;;;5048435;28;20289;-67
2022/08/12 01:03:19;;;;;;;9.02;3.58;;;;;;;;;;5050002;28;20589;-67
2022/08/12 01:11:28;;;;;;;4.70;3.08;;;;;;;;;;5068299;28;20266;-67
2022/08/12 01:13:55;;;;;;;5.65;3.70;;;;;;;;;;5055656;28;20259;-67
2022/08/12 01:16:21;;;;;;;10.05;3.30;;;;;;;;;;5055289;28;20170;-67
2022/08/12 01:18:48;;;;;;;4.28;3.88;;;;;;;;;;5071158;28;20227;-64
2022/08/12 01:21:17;;;;;;;4.53;3.47;;;;;;;;;;5072570;28;20180;-64
2022/08/12 01:23:55;;;;;;;5.53;3.90;;;;;;;;;;5059935;28;20173;-66
2022/08/12 01:26:22;;;;;;;7.80;4.10;;;;;;;;;;5058166;28;20252;-66
2022/08/12 01:28:54;;;;;;;5.30;3.22;;;;;;;;;;5050685;28;20189;-67
2022/08/12 01:31:20;;;;;;;7.05;3.45;;;;;;;;;;5060217;28;20201;-67
2022/08/12 01:33:58;;;;;;;5.22;4.07;;;;;;;;;;5058501;28;20181;-66
2022/08/12 01:36:27;;;;;;;7.75;3.90;;;;;;;;;;5051460;28;20173;-66
2022/08/12 01:38:56;;;;;;;5.40;3.65;;;;;;;;;;5061571;28;20180;-67
2022/08/12 01:41:24;;;;;;;4.15;3.63;;;;;;;;;;5052007;28;20204;-67
2022/08/12 01:43:53;;;;;;;5.60;3.60;;;;;;;;;;5051017;28;20214;-67
2022/08/12 01:46:36;;;;;;;5.88;3.90;;;;;;;;;;5067859;28;20224;-67
2022/08/12 01:49:35;;;;;;;6.03;3.78;;;;;;;;;;5052966;28;20185;-67
2022/08/12 01:52:04;;;;;;;4.85;3.75;;;;;;;;;;5063418;28;20195;-67
2022/08/12 01:54:41;;;;;;;4.85;3.70;;;;;;;;;;5055189;28;20669;-67
2022/08/12 01:57:20;;;;;;;4.78;3.35;;;;;;;;;;5063622;28;20184;-67
2022/08/12 01:59:58;;;;;;;6.03;3.55;;;;;;;;;;5053685;28;20185;-67
2022/08/12 02:02:45;;;;;;;5.18;3.60;;;;;;;;;;5051535;28;20212;-67
2022/08/12 02:12:03;;;;;;;4.72;3.78;;;;;;;;;;5050845;28;20691;-66
2022/08/12 02:14:55;;;;;;;6.50;3.80;;;;;;;;;;5050497;28;20185;-67
2022/08/12 02:17:47;;;;;;;5.07;3.80;;;;;;;;;;5062117;28;20191;-67
2022/08/12 02:20:22;;;;;;;4.60;4.03;;;;;;;;;;5057734;28;20189;-67
2022/08/12 02:22:50;;;;;;;4.60;4.10;;;;;;;;;;5056531;28;20185;-67
2022/08/12 02:25:35;;;;;;;4.75;3.90;;;;;;;;;;5066572;28;20288;-67
2022/08/12 02:28:02;;;;;;;4.78;3.78;;;;;;;;;;5061383;28;20237;-67
2022/08/12 02:30:30;;;;;;;5.38;3.97;;;;;;;;;;5050591;28;20765;-67
2022/08/12 02:32:58;;;;;;;4.88;3.80;;;;;;;;;;5051544;28;20201;-67
2022/08/12 02:35:26;;;;;;;5.38;4.55;;;;;;;;;;5050137;28;20182;-67
2022/08/12 02:38:01;;;;;;;5.75;4.07;;;;;;;;;;5052549;28;20173;-67
2022/08/12 02:40:28;;;;;;;5.72;3.80;;;;;;;;;;5058305;28;20197;-67
2022/08/12 02:43:17;;;;;;;5.95;3.92;;;;;;;;;;5049455;28;20523;-67
2022/08/12 02:45:52;;;;;;;6.68;4.10;;;;;;;;;;5049760;28;20267;-67
2022/08/12 02:48:51;;;;;;;9.20;4.22;;;;;;;;;;5050498;28;20276;-67
2022/08/12 02:51:24;;;;;;;7.45;4.30;;;;;;;;;;5065910;28;20203;-67
2022/08/12 02:53:51;;;;;;;4.68;4.18;;;;;;;;;;5060016;28;20177;-67
2022/08/12 02:56:17;;;;;;;5.47;4.10;;;;;;;;;;5055636;28;20269;-67
2022/08/12 02:58:45;;;;;;;6.07;4.30;;;;;;;;;;5058776;28;20192;-66
2022/08/12 03:01:10;;;;;;;10.27;4.20;;;;;;;;;;5053158;28;20247;-66
2022/08/12 03:03:37;;;;;;;5.53;3.88;;;;;;;;;;5068370;28;20202;-66
2022/08/12 03:06:07;;;;;;;6.03;4.40;;;;;;;;;;5068485;28;20200;-66
2022/08/12 03:08:41;;;;;;;5.20;4.53;;;;;;;;;;5068092;28;20583;-67
2022/08/12 03:11:13;;;;;;;6.20;4.25;;;;;;;;;;5064762;28;20619;-64
2022/08/12 03:13:43;;;;;;;8.77;4.18;;;;;;;;;;5070126;28;20715;-64
2022/08/12 03:16:08;;;;;;;6.32;4.55;;;;;;;;;;5066976;28;20204;-64
2022/08/12 03:18:34;;;;;;;7.50;4.30;;;;;;;;;;5051749;28;20212;-64
2022/08/12 03:21:00;;;;;;;5.30;4.28;;;;;;;;;;5062537;28;20192;-64
2022/08/12 03:23:28;;;;;;;7.72;4.47;;;;;;;;;;5067493;28;20230;-64
2022/08/12 03:25:55;;;;;;;7.10;4.45;;;;;;;;;;5062406;28;20228;-66
2022/08/12 03:31:07;;;;;;;9.50;4.60;;;;;;;;;;5055844;28;20188;-66
2022/08/12 03:33:39;;;;;;;9.77;4.75;;;;;;;;;;5057582;28;20177;-66
2022/08/12 03:36:06;;;;;;;7.20;4.57;;;;;;;;;;5048956;28;20226;-64
2022/08/12 03:38:41;;;;;;;5.90;4.50;;;;;;;;;;5057352;28;20177;-64
2022/08/12 03:41:35;;;;;;;5.63;4.00;;;;;;;;;;5048349;28;20173;-64
2022/08/12 04:00:46;;;;;;;7.03;4.78;;;;;;;;;;5053961;28;20192;-66
2022/08/12 04:05:55;;;;;;;9.77;4.60;;;;;;;;;;5067719;28;20238;-66
2022/08/12 04:08:25;;;;;;;5.45;4.50;;;;;;;;;;5064201;28;20728;-67
2022/08/12 04:13:36;;;;;;;6.13;4.65;;;;;;;;;;5056289;28;20223;-64
2022/08/12 04:16:05;;;;;;;10.35;4.70;;;;;;;;;;5047840;28;20201;-64
2022/08/12 04:18:31;;;;;;;9.35;5.00;;;;;;;;;;5062278;28;20173;-64
2022/08/12 04:20:57;;;;;;;5.78;4.65;;;;;;;;;;5048420;28;20231;-64
2022/08/12 04:23:24;;;;;;;8.10;4.85;;;;;;;;;;5048472;28;20677;-67
2022/08/12 04:25:50;;;;;;;6.15;4.85;;;;;;;;;;5068181;28;20212;-67
2022/08/12 04:28:24;;;;;;;7.78;5.05;;;;;;;;;;5054855;28;20601;-67
2022/08/12 04:30:50;;;;;;;8.00;5.10;;;;;;;;;;5066445;28;20249;-67
2022/08/12 04:33:17;;;;;;;8.32;4.55;;;;;;;;;;5066239;28;20192;-67
2022/08/12 04:35:43;;;;;;;10.13;4.90;;;;;;;;;;5063548;28;20692;-67
2022/08/12 04:38:08;;;;;;;9.68;5.57;;;;;;;;;;5064259;28;20280;-67
2022/08/12 04:40:37;;;;;;;8.63;4.78;;;;;;;;;;5047865;28;20201;-67
2022/08/12 04:43:03;;;;;;;10.68;5.22;;;;;;;;;;5048663;28;20181;-67
2022/08/12 04:45:31;;;;;;;6.75;4.88;;;;;;;;;;5052526;28;20202;-67
2022/08/12 04:47:57;;;;;;;6.13;5.15;;;;;;;;;;5048245;28;20193;-66
2022/08/12 04:50:24;;;;;;;8.50;4.82;;;;;;;;;;5049011;28;20189;-67
2022/08/12 04:52:50;;;;;;;6.20;4.80;;;;;;;;;;5066473;28;20174;-67
2022/08/12 04:55:16;;;;;;;7.82;5.43;;;;;;;;;;5062880;28;20173;-67
2022/08/12 04:57:42;;;;;;;9.18;5.20;;;;;;;;;;5068146;28;20189;-67
2022/08/12 05:00:10;;;;;;;8.40;5.68;;;;;;;;;;5052067;28;20181;-67
2022/08/12 05:02:36;;;;;;;10.10;5.22;;;;;;;;;;5051451;28;20193;-67
2022/08/12 05:05:03;;;;;;;8.15;5.55;;;;;;;;;;5059578;28;20671;-67
2022/08/12 05:07:28;;;;;;;8.32;5.43;;;;;;;;;;5074908;28;20216;-67
2022/08/12 05:09:54;;;;;;;10.48;5.95;;;;;;;;;;5061574;28;20267;-67
2022/08/12 05:12:19;;;;;;;6.13;5.13;;;;;;;;;;5052285;28;20181;-67
2022/08/12 05:14:45;;;;;;;7.55;5.18;;;;;;;;;;5068896;28;20294;-67
2022/08/12 05:17:10;;;;;;;7.38;5.00;;;;;;;;;;5061644;28;20185;-67
2022/08/12 05:19:36;;;;;;;6.40;4.65;;;;;;;;;;5064738;28;20176;-67
2022/08/12 05:22:01;;;;;;;8.30;4.97;;;;;;;;;;5051256;28;20708;-67
2022/08/12 05:24:27;;;;;;;9.00;5.18;;;;;;;;;;5057955;28;20682;-67
2022/08/12 05:26:53;;;;;;;8.10;4.88;;;;;;;;;;5057546;28;20248;-67
2022/08/12 05:29:18;;;;;;;10.10;5.20;;;;;;;;;;5053986;28;20196;-67
2022/08/12 05:31:44;;;;;;;9.15;5.50;;;;;;;;;;5070662;28;20612;-68
2022/08/12 05:34:13;;;;;;;7.57;5.20;;;;;;;;;;5059579;28;20192;-67
2022/08/12 05:36:39;;;;;;;8.30;5.18;;;;;;;;;;5058589;28;20235;-67
2022/08/12 05:39:04;;;;;;;8.50;4.95;;;;;;;;;;5061846;28;20216;-69
2022/08/12 05:41:34;;;;;;;7.55;4.95;;;;;;;;;;5071230;28;20236;-67
2022/08/12 05:44:04;;;;;;;6.68;4.75;;;;;;;;;;5062393;28;20586;-67
2022/08/12 05:46:31;;;;;;;7.43;5.20;;;;;;;;;;5052649;28;20213;-67
2022/08/12 05:48:59;;;;;;;7.03;5.47;;;;;;;;;;5051171;28;20174;-67
2022/08/12 05:51:26;;;;;;;5.60;5.00;;;;;;;;;;5058479;28;20231;-67
2022/08/12 05:53:53;;;;;;;8.80;5.30;;;;;;;;;;5057953;28;20750;-67
2022/08/12 05:56:21;;;;;;;7.40;5.38;;;;;;;;;;5056080;28;20686;-67
2022/08/12 05:58:48;;;;;;;9.05;5.70;;;;;;;;;;5070719;28;20254;-67
2022/08/12 06:01:13;;;;;;;9.20;5.47;;;;;;;;;;5052518;28;20181;-67
2022/08/12 06:03:39;;;;;;;10.18;5.65;;;;;;;;;;5060872;28;20556;-67
2022/08/12 06:06:05;;;;;;;5.70;5.13;;;;;;;;;;5054078;28;20252;-67
2022/08/12 06:08:33;;;;;;;6.60;5.30;;;;;;;;;;5061479;28;20211;-67
2022/08/12 06:11:00;;;;;;;7.68;5.32;;;;;;;;;;5070146;28;20169;-67
2022/08/12 06:13:25;;;;;;;7.43;4.75;;;;;;;;;;5057185;28;20628;-67
2022/08/12 06:15:51;;;;;;;7.25;4.93;;;;;;;;;;5071297;28;20169;-67
2022/08/12 06:18:17;;;;;;;8.23;4.88;;;;;;;;;;5051840;28;20189;-67
2022/08/12 06:20:47;;;;;;;7.50;4.97;;;;;;;;;;5061337;28;20231;-67
2022/08/12 06:23:14;;;;;;;6.78;4.63;;;;;;;;;;5056145;28;20176;-67
2022/08/12 06:25:40;;;;;;;6.10;4.68;;;;;;;;;;5065791;28;20280;-67
2022/08/12 06:28:18;;;;;;;7.55;4.65;;;;;;;;;;5070528;28;20239;-68
2022/08/12 06:30:47;;;;;;;8.82;4.70;;;;;;;;;;5069527;28;20180;-67
2022/08/12 06:33:13;;;;;;;7.53;4.85;;;;;;;;;;5062662;28;20185;-68
2022/08/12 06:35:40;;;;;;;6.07;4.80;;;;;;;;;;5053979;28;20575;-68
2022/08/12 06:38:14;;;;;;;12.02;5.20;;;;;;;;;;5064791;28;20644;-67
2022/08/12 06:43:25;;;;;;;6.93;4.72;;;;;;;;;;5062459;28;20195;-68
2022/08/12 06:45:50;;;;;;;6.18;4.45;;;;;;;;;;5055668;28;20193;-68
2022/08/12 06:48:16;;;;;;;9.55;4.95;;;;;;;;;;5065100;28;20192;-68
2022/08/12 06:50:43;;;;;;;6.20;5.00;;;;;;;;;;5053815;28;20617;-68
2022/08/12 06:53:09;;;;;;;6.18;4.40;;;;;;;;;;5066259;28;20633;-67
2022/08/12 06:55:35;;;;;;;8.52;4.13;;;;;;;;;;5064167;28;20230;-67
2022/08/12 06:58:03;;;;;;;5.57;5.00;;;;;;;;;;5055657;28;20189;-68
2022/08/12 07:00:32;;;;;;;8.23;4.72;;;;;;;;;;5058124;28;20659;-68
2022/08/12 07:02:59;;;;;;;8.40;4.82;;;;;;;;;;5053829;28;20214;-68
2022/08/12 07:05:24;;;;;;;5.60;4.15;;;;;;;;;;5059227;28;20221;-68
2022/08/12 07:08:15;;;;;;;8.93;4.45;;;;;;;;;;5055585;28;20232;-68
2022/08/12 07:10:52;;;;;;;11.98;4.25;;;;;;;;;;5049140;28;20208;-68
2022/08/12 07:13:17;;;;;;;9.68;4.00;;;;;;;;;;5054685;28;20177;-68
2022/08/12 07:15:44;;;;;;;7.63;4.05;;;;;;;;;;5057801;28;20174;-68
2022/08/12 07:18:14;;;;;;;7.13;3.88;;;;;;;;;;5063100;28;20209;-68
2022/08/12 07:20:42;;;;;;;5.82;3.75;;;;;;;;;;5050209;28;20231;-68
2022/08/12 07:23:08;;;;;;;5.63;3.25;;;;;;;;;;5051390;28;20841;-68
2022/08/12 07:25:34;;;;;;;8.02;3.50;;;;;;;;;;5055136;28;20288;-68
2022/08/12 07:28:04;;;;;;;4.13;3.47;;;;;;;;;;5048765;28;20224;-68
2022/08/12 07:30:32;;;;;;;4.80;3.50;;;;;;;;;;5049416;28;20197;-68
2022/08/12 07:33:00;;;;;;;6.15;3.95;;;;;;;;;;5061383;28;20197;-68
2022/08/12 07:35:30;;;;;;;6.18;3.33;;;;;;;;;;5050923;28;20238;-68
2022/08/12 07:37:56;;;;;;;7.47;3.50;;;;;;;;;;5062026;28;20223;-69
2022/08/12 07:40:23;;;;;;;7.70;4.05;;;;;;;;;;5068076;28;20220;-68
2022/08/12 07:42:48;;;;;;;4.32;3.55;;;;;;;;;;5055104;28;20252;-68
2022/08/12 07:45:14;;;;;;;6.30;3.63;;;;;;;;;;5069520;28;20296;-68
2022/08/12 07:47:42;;;;;;;4.78;3.03;;;;;;;;;;5054520;28;20173;-67
2022/08/12 07:50:09;;;;;;;4.72;3.03;;;;;;;;;;5058624;28;20174;-66
2022/08/12 07:52:37;;;;;;;7.20;3.17;;;;;;;;;;5048680;28;20188;-65
2022/08/12 07:55:02;;;;;;;5.22;3.50;;;;;;;;;;5059462;28;20185;-65
2022/08/12 07:57:28;;;;;;;10.10;3.72;;;;;;;;;;5047895;28;20188;-66
2022/08/12 07:59:53;;;;;;;5.88;2.90;;;;;;;;;;5049057;28;20264;-66
2022/08/12 08:02:19;;;;;;;5.80;3.30;;;;;;;;;;5048989;28;20722;-66
2022/08/12 08:04:56;;;;;;;7.85;3.33;;;;;;;;;;5047699;28;20185;-66
2022/08/12 08:07:24;;;;;;;9.13;3.42;;;;;;;;;;5052793;28;20185;-65
2022/08/12 08:09:52;;;;;;;7.57;3.25;;;;;;;;;;5050235;28;20544;-66
2022/08/12 08:15:02;;;;;;;8.38;3.20;;;;;;;;;;5054950;28;20203;-65
2022/08/12 08:17:28;;;;;;;4.53;3.15;;;;;;;;;;5057428;28;20181;-65
2022/08/12 08:19:54;;;;;;;4.72;2.85;;;;;;;;;;5050083;28;20425;-65
2022/08/12 08:22:20;;;;;;;4.55;2.90;;;;;;;;;;5049083;28;20217;-66
2022/08/12 08:24:45;;;;;;;4.70;2.78;;;;;;;;;;5057595;28;20216;-66
2022/08/12 08:27:11;;;;;;;9.30;3.17;;;;;;;;;;5050087;28;20268;-66
2022/08/12 08:29:36;;;;;;;4.78;2.92;;;;;;;;;;5069075;28;20210;-66
2022/08/12 08:32:03;;;;;;;6.88;3.28;;;;;;;;;;5054529;28;20665;-65
2022/08/12 08:34:32;;;;;;;3.88;2.72;;;;;;;;;;5049815;28;20657;-66
2022/08/12 08:36:57;;;;;;;8.43;3.45;;;;;;;;;;5062218;28;20242;-65
2022/08/12 08:39:26;;;;;;;3.80;3.00;;;;;;;;;;5060901;28;20176;-64
2022/08/12 08:44:36;;;;;;;6.50;2.95;;;;;;;;;;5056591;28;20217;-65
2022/08/12 08:47:04;;;;;;;6.63;3.03;;;;;;;;;;5068156;28;20676;-66
2022/08/12 08:49:29;;;;;;;6.78;2.67;;;;;;;;;;5047761;28;20173;-66
2022/08/12 08:51:55;;;;;;;6.57;2.97;;;;;;;;;;5059902;28;20192;-64
2022/08/12 08:54:20;;;;;;;3.88;3.03;;;;;;;;;;5057858;28;20169;-65
2022/08/12 08:56:48;;;;;;;4.22;2.72;;;;;;;;;;5051487;28;20193;-65
2022/08/12 08:59:15;;;;;;;9.85;3.33;;;;;;;;;;5050115;28;20173;-66
2022/08/12 09:01:42;;;;;;;6.78;2.85;;;;;;;;;;5068102;28;20196;-64
2022/08/12 09:04:10;;;;;;;9.23;3.13;;;;;;;;;;5053672;28;20174;-65
2022/08/12 09:06:38;;;;;;;6.22;2.85;;;;;;;;;;5055113;28;20683;-66
2022/08/12 09:09:04;;;;;;;5.53;2.70;;;;;;;;;;5062448;28;20212;-66
2022/08/12 09:14:14;;;;;;;4.43;2.60;;;;;;;;;;5064771;28;20204;-66
2022/08/12 09:16:39;;;;;;;5.95;2.85;;;;;;;;;;5066909;28;20637;-65
2022/08/12 09:19:07;;;;;;;4.10;2.45;;;;;;;;;;5068622;28;20556;-65
2022/08/12 09:21:33;;;;;;;4.05;2.70;;;;;;;;;;5049674;28;20174;-67
2022/08/12 09:23:59;;;;;;;4.95;2.33;;;;;;;;;;5053877;28;20299;-66
2022/08/12 09:26:28;;;;;;;6.63;2.70;;;;;;;;;;5057689;28;20239;-66
2022/08/12 09:28:55;;;;;;;4.47;2.78;;;;;;;;;;5057629;28;20185;-65
2022/08/12 09:31:21;;;;;;;3.85;2.75;;;;;;;;;;5056766;28;20696;-66
2022/08/12 09:33:46;;;;;;;3.85;2.25;;;;;;;;;;5049041;28;20272;-66
2022/08/12 09:36:13;;;;;;;4.40;2.70;;;;;;;;;;5047968;28;20260;-66
2022/08/12 09:38:39;;;;;;;6.55;2.80;;;;;;;;;;5057421;28;20177;-65
2022/08/12 09:41:05;;;;;;;4.05;2.75;;;;;;;;;;5065015;28;20272;-66
2022/08/12 09:46:15;;;;;;;3.58;2.47;;;;;;;;;;5058943;28;20215;-68
2022/08/12 09:48:40;;;;;;;3.38;2.40;;;;;;;;;;5061786;28;20181;-67
2022/08/12 09:51:07;;;;;;;3.67;2.45;;;;;;;;;;5070997;28;20196;-65
2022/08/12 09:53:33;;;;;;;3.97;2.70;;;;;;;;;;5060689;28;20196;-66
2022/08/12 09:55:58;;;;;;;3.58;2.60;;;;;;;;;;5068011;28;20493;-65
2022/08/12 09:58:28;;;;;;;5.22;2.65;;;;;;;;;;5061978;28;20181;-67
2022/08/12 10:00:55;;;;;;;4.03;2.67;;;;;;;;;;5050209;28;20508;-66
2022/08/12 10:03:22;;;;;;;4.43;2.92;;;;;;;;;;5058597;28;20652;-65
2022/08/12 10:05:48;;;;;;;8.85;2.67;;;;;;;;;;5070932;28;20205;-66
2022/08/12 10:08:15;;;;;;;4.95;2.67;;;;;;;;;;5071972;28;20649;-65
2022/08/12 10:13:41;;;;;;;4.07;2.60;;;;;;;;;;5051992;28;20212;-64
2022/08/12 10:16:31;;;;;;;3.78;2.50;;;;;;;;;;5051110;28;20233;-69
2022/08/12 10:19:00;;;;;;;6.18;2.55;;;;;;;;;;5065634;28;20197;-67
2022/08/12 10:21:29;;;;;;;7.40;2.95;;;;;;;;;;5056974;28;20559;-70
2022/08/12 10:23:55;;;;;;;4.35;2.70;;;;;;;;;;5065300;28;20312;-69
2022/08/12 10:31:54;;;;;;;4.90;2.75;;;;;;;;;;5069811;28;20203;-68
2022/08/12 10:34:21;;;;;;;3.15;2.90;;;;;;;;;;5056345;28;20188;-67
2022/08/12 10:36:48;;;;;;;5.60;2.88;;;;;;;;;;5050980;28;20177;-65
2022/08/12 10:39:16;;;;;;;5.40;2.70;;;;;;;;;;5056206;28;20182;-67
2022/08/12 10:44:26;;;;;;;3.08;2.45;;;;;;;;;;5056757;28;20207;-66
2022/08/12 10:46:51;;;;;;;3.33;3.03;;;;;;;;;;5070410;28;20232;-66
2022/08/12 10:49:33;;;;;;;2.90;2.50;;;;;;;;;;5057559;28;20196;-69
2022/08/12 10:52:00;;;;;;;3.50;2.92;;;;;;;;;;5071125;28;20640;-67
2022/08/12 10:54:26;;;;;;;3.55;2.70;;;;;;;;;;5054950;28;20177;-66
2022/08/12 10:56:52;;;;;;;4.43;2.75;;;;;;;;;;5057439;28;20645;-67
2022/08/12 10:59:20;;;;;;;7.65;2.80;;;;;;;;;;5055440;28;20677;-67
2022/08/12 11:01:46;;;;;;;6.90;3.05;;;;;;;;;;5070063;28;20357;-67
2022/08/12 11:04:12;;;;;;;3.65;2.50;;;;;;;;;;5068258;28;20643;-66
2022/08/12 11:06:43;;;;;;;4.75;2.88;;;;;;;;;;5053150;28;20208;-66
2022/08/12 11:09:09;;;;;;;3.45;2.55;;;;;;;;;;5060886;28;20267;-65
2022/08/12 11:11:35;;;;;;;4.13;2.92;;;;;;;;;;5063229;28;20200;-66
2022/08/12 11:14:00;;;;;;;6.82;3.00;;;;;;;;;;5060782;28;20181;-64
2022/08/12 11:16:28;;;;;;;7.20;2.80;;;;;;;;;;5050025;28;20205;-66
2022/08/12 11:18:53;;;;;;;4.18;2.78;;;;;;;;;;5060368;28;20259;-66
2022/08/12 11:21:18;;;;;;;6.57;3.20;;;;;;;;;;5061604;28;20345;-65
2022/08/12 11:23:43;;;;;;;4.45;2.70;;;;;;;;;;5066464;28;20184;-67
2022/08/12 11:26:09;;;;;;;8.25;3.03;;;;;;;;;;5061886;28;20194;-69
2022/08/12 11:28:35;;;;;;;4.80;3.00;;;;;;;;;;5049869;28;20636;-68
2022/08/12 11:31:02;;;;;;;7.07;2.80;;;;;;;;;;5058118;28;20178;-70
2022/08/12 11:33:27;;;;;;;4.68;2.65;;;;;;;;;;5058798;28;20268;-69
2022/08/12 11:35:53;;;;;;;6.60;2.60;;;;;;;;;;5049893;28;20592;-68
2022/08/12 11:38:19;;;;;;;4.82;2.70;;;;;;;;;;5049167;28;20181;-67
2022/08/12 11:40:45;;;;;;;5.78;2.88;;;;;;;;;;5049185;28;20700;-69
2022/08/12 11:43:10;;;;;;;6.90;2.42;;;;;;;;;;5050128;28;20173;-68
2022/08/12 11:45:36;;;;;;;5.95;2.83;;;;;;;;;;5062623;28;20230;-68
2022/08/12 11:48:01;;;;;;;2.58;2.35;;;;;;;;;;5050365;28;20594;-69
2022/08/12 11:50:27;;;;;;;4.95;2.55;;;;;;;;;;5049475;28;20271;-67
2022/08/12 11:52:52;;;;;;;5.90;3.30;;;;;;;;;;5061740;28;20185;-66
2022/08/12 11:55:18;;;;;;;4.80;2.90;;;;;;;;;;5049545;28;20185;-66
2022/08/12 11:58:02;;;;;;;6.38;2.63;;;;;;;;;;5064082;28;20588;-66
2022/08/12 12:00:28;;;;;;;5.90;2.78;;;;;;;;;;5049525;28;20707;-65
2022/08/12 12:02:53;;;;;;;4.57;2.70;;;;;;;;;;5051468;28;20272;-66
2022/08/12 12:05:19;;;;;;;3.70;3.10;;;;;;;;;;5059480;28;20546;-64
2022/08/12 12:07:45;;;;;;;2.95;2.60;;;;;;;;;;5067116;28;20180;-69
2022/08/12 12:10:13;;;;;;;4.72;2.65;;;;;;;;;;5051390;28;20177;-68
2022/08/12 12:12:39;;;;;;;5.35;2.97;;;;;;;;;;5061904;28;20275;-66
2022/08/12 12:15:05;;;;;;;5.50;2.50;;;;;;;;;;5062920;28;20651;-66
2022/08/12 12:17:35;;;;;;;4.30;2.88;;;;;;;;;;5048592;28;20184;-67
2022/08/12 12:20:03;;;;;;;3.47;2.80;;;;;;;;;;5063297;28;20173;-69
2022/08/12 12:22:28;;;;;;;4.93;2.50;;;;;;;;;;5050715;28;20177;-69
2022/08/12 12:24:53;;;;;;;5.63;2.70;;;;;;;;;;5063811;28;20179;-68
2022/08/12 12:27:19;;;;;;;5.85;2.90;;;;;;;;;;5053621;28;20225;-64
2022/08/12 12:29:45;;;;;;;3.42;2.53;;;;;;;;;;5059753;28;20213;-66
2022/08/12 12:32:10;;;;;;;2.95;2.45;;;;;;;;;;5048811;28;20201;-65
2022/08/12 12:34:35;;;;;;;6.50;2.65;;;;;;;;;;5049539;28;20534;-63
2022/08/12 12:37:01;;;;;;;6.22;2.50;;;;;;;;;;5048381;28;20185;-64
2022/08/12 12:39:26;;;;;;;4.22;2.45;;;;;;;;;;5055447;28;20209;-65
2022/08/12 12:41:51;;;;;;;6.97;2.85;;;;;;;;;;5055937;28;20181;-66
2022/08/12 12:44:17;;;;;;;4.65;2.35;;;;;;;;;;5053090;28;20233;-66
2022/08/12 12:46:42;;;;;;;6.22;2.53;;;;;;;;;;5057839;28;20205;-65
2022/08/12 12:49:07;;;;;;;5.00;2.70;;;;;;;;;;5049781;28;20281;-66
2022/08/12 12:51:33;;;;;;;5.80;2.50;;;;;;;;;;5048672;28;20187;-69
2022/08/12 12:53:58;;;;;;;4.38;2.70;;;;;;;;;;5058432;28;20200;-67
2022/08/12 12:56:24;;;;;;;4.15;2.63;;;;;;;;;;5048507;28;20169;-67
2022/08/12 12:58:50;;;;;;;3.30;2.75;;;;;;;;;;5049509;28;20184;-67
2022/08/12 13:01:18;;;;;;;7.18;2.63;;;;;;;;;;5048757;28;20648;-67
2022/08/12 13:03:44;;;;;;;5.65;2.88;;;;;;;;;;5058355;28;20187;-67
2022/08/12 13:06:11;;;;;;;6.43;2.83;;;;;;;;;;5054122;28;20196;-67
2022/08/12 13:08:37;;;;;;;3.63;2.83;;;;;;;;;;5066639;28;20184;-65
2022/08/12 13:11:04;;;;;;;5.65;3.72;;;;;;;;;;5048564;28;20181;-64
2022/08/12 13:13:31;;;;;;;2.53;2.33;;;;;;;;;;5064285;28;20179;-65
2022/08/12 13:16:00;;;;;;;3.28;2.60;;;;;;;;;;5052670;28;20207;-65
2022/08/12 13:18:35;;;;;;;4.50;2.83;;;;;;;;;;5054442;28;20687;-65
2022/08/12 13:21:03;;;;;;;6.13;3.00;;;;;;;;;;5059252;28;20639;-63
2022/08/12 13:23:28;;;;;;;3.15;2.70;;;;;;;;;;5067830;28;20179;-67
2022/08/12 13:25:54;;;;;;;3.25;2.92;;;;;;;;;;5065313;28;20192;-66
2022/08/12 13:28:21;;;;;;;5.85;2.50;;;;;;;;;;5062848;28;20224;-65
2022/08/12 13:30:48;;;;;;;6.60;2.83;;;;;;;;;;5053086;28;20191;-66
2022/08/12 13:33:14;;;;;;;6.22;3.10;;;;;;;;;;5052929;28;20180;-65
2022/08/12 13:35:40;;;;;;;7.93;2.80;;;;;;;;;;5063204;28;20191;-65
2022/08/12 13:38:09;;;;;;;5.13;2.63;;;;;;;;;;5058240;28;20200;-64
2022/08/12 13:40:35;;;;;;;3.92;2.65;;;;;;;;;;5071616;28;20180;-65
2022/08/12 13:43:05;;;;;;;5.13;2.88;;;;;;;;;;5052032;28;20227;-65
2022/08/12 13:45:32;;;;;;;5.15;2.92;;;;;;;;;;5063927;28;20188;-65
2022/08/12 13:47:58;;;;;;;4.10;2.95;;;;;;;;;;5070066;28;20231;-65
2022/08/12 13:50:37;;;;;;;5.35;2.75;;;;;;;;;;5071817;28;20207;-66
2022/08/12 13:53:09;;;;;;;7.30;2.95;;;;;;;;;;5063260;28;20762;-65
2022/08/12 13:55:35;;;;;;;4.28;2.70;;;;;;;;;;5063467;28;20491;-67
2022/08/12 13:58:04;;;;;;;4.80;3.67;;;;;;;;;;5056566;28;20176;-68
2022/08/12 14:00:31;;;;;;;3.33;2.65;;;;;;;;;;5071764;28;20222;-66
2022/08/12 14:02:56;;;;;;;5.55;3.17;;;;;;;;;;5068582;28;20251;-66
2022/08/12 14:05:22;;;;;;;4.68;2.63;;;;;;;;;;5071344;28;20617;-66
2022/08/12 14:08:02;;;;;;;5.72;2.67;;;;;;;;;;5068944;28;20212;-65
2022/08/12 14:10:35;;;;;;;6.30;2.83;;;;;;;;;;5059884;28;20192;-65
2022/08/12 14:13:05;;;;;;;3.88;2.90;;;;;;;;;;5052953;28;20173;-66
2022/08/12 14:15:36;;;;;;;6.57;3.15;;;;;;;;;;5061780;28;20198;-64
2022/08/12 14:18:05;;;;;;;5.38;2.95;;;;;;;;;;5068374;28;20273;-66
2022/08/12 14:20:31;;;;;;;5.15;2.78;;;;;;;;;;5070476;28;20271;-65
2022/08/12 14:22:58;;;;;;;4.38;2.90;;;;;;;;;;5055640;28;20263;-65
2022/08/12 14:25:25;;;;;;;3.03;2.63;;;;;;;;;;5065237;28;20188;-65
2022/08/12 14:27:53;;;;;;;9.65;2.70;;;;;;;;;;5063335;28;20316;-67
2022/08/12 14:30:19;;;;;;;7.40;2.83;;;;;;;;;;5066036;28;20187;-66
2022/08/12 14:32:44;;;;;;;6.68;2.55;;;;;;;;;;5065914;28;20665;-65
2022/08/12 14:35:09;;;;;;;5.22;2.42;;;;;;;;;;5050969;28;20208;-66
2022/08/12 14:37:39;;;;;;;5.72;3.17;;;;;;;;;;5055692;28;20184;-66
2022/08/12 14:40:05;;;;;;;3.33;2.47;;;;;;;;;;5050434;28;20710;-66
2022/08/12 14:42:30;;;;;;;4.07;2.53;;;;;;;;;;5053726;28;20184;-64
2022/08/12 14:44:56;;;;;;;2.80;2.60;;;;;;;;;;5061055;28;20173;-68
2022/08/12 14:47:22;;;;;;;3.90;2.60;;;;;;;;;;5063822;28;20679;-68
2022/08/12 14:49:47;;;;;;;2.55;2.20;;;;;;;;;;5070328;28;20180;-65
2022/08/12 14:52:13;;;;;;;4.10;2.30;;;;;;;;;;5056523;28;20196;-65
2022/08/12 14:54:38;;;;;;;8.48;2.72;;;;;;;;;;5056940;28;20667;-66
2022/08/12 14:57:05;;;;;;;4.55;2.45;;;;;;;;;;5057859;28;20223;-66
2022/08/12 15:02:19;;;;;;;5.00;2.30;;;;;;;;;;5056556;28;20328;-66
2022/08/12 15:04:45;;;;;;;2.80;2.03;;;;;;;;;;5063197;28;20187;-66
2022/08/12 15:07:13;;;;;;;5.82;2.25;;;;;;;;;;5059461;28;20290;-68
2022/08/12 15:09:38;;;;;;;9.35;2.08;;;;;;;;;;5061269;28;20657;-65
2022/08/12 15:12:12;;;;;;;4.53;2.00;;;;;;;;;;5054405;28;20184;-66
2022/08/12 15:14:38;;;;;;;3.53;2.00;;;;;;;;;;5053820;28;20627;-66
2022/08/12 15:17:05;;;;;;;6.88;2.20;;;;;;;;;;5049657;28;20185;-66
2022/08/12 15:19:31;;;;;;;2.55;2.25;;;;;;;;;;5048591;28;20188;-67
2022/08/12 15:21:56;;;;;;;3.47;1.95;;;;;;;;;;5049741;28;20670;-68
2022/08/12 15:24:22;;;;;;;5.00;2.00;;;;;;;;;;5060111;28;20181;-66
2022/08/12 15:26:47;;;;;;;5.30;2.38;;;;;;;;;;5068130;28;20691;-68
2022/08/12 15:29:12;;;;;;;2.28;2.00;;;;;;;;;;5054893;28;20667;-74
2022/08/12 15:31:38;;;;;;;2.42;2.20;;;;;;;;;;5069576;28;20230;-69
2022/08/12 15:34:05;;;;;;;5.20;2.17;;;;;;;;;;5052992;28;20542;-67
2022/08/12 15:36:33;;;;;;;2.20;2.00;;;;;;;;;;5049012;28;20693;-68
2022/08/12 15:38:59;;;;;;;5.47;2.00;;;;;;;;;;5052161;28;20599;-68
2022/08/12 15:41:25;;;;;;;5.03;2.13;;;;;;;;;;5069268;28;20241;-67
2022/08/12 15:43:51;;;;;;;2.83;2.10;;;;;;;;;;5068879;28;20180;-68
2022/08/12 15:46:17;;;;;;;4.40;2.17;;;;;;;;;;5068627;28;20306;-68
2022/08/12 15:48:43;;;;;;;10.38;2.88;;;;;;;;;;5061713;28;20726;-66
2022/08/12 15:51:08;;;;;;;2.83;2.40;;;;;;;;;;5055033;28;20180;-67
2022/08/12 15:56:20;;;;;;;5.40;2.35;;;;;;;;;;5068932;28;20214;-67
2022/08/12 15:58:46;;;;;;;4.60;2.40;;;;;;;;;;5068817;28;20263;-68
2022/08/12 16:01:16;;;;;;;3.17;2.40;;;;;;;;;;5050521;28;20366;-64
2022/08/12 16:03:42;;;;;;;6.10;2.42;;;;;;;;;;5059349;28;20630;-65
2022/08/12 16:06:09;;;;;;;2.50;2.30;;;;;;;;;;5051673;28;20204;-66
2022/08/12 16:08:41;;;;;;;5.88;3.28;;;;;;;;;;5058445;28;20629;-65
2022/08/12 16:11:08;;;;;;;3.70;2.60;;;;;;;;;;5057669;28;20503;-65
2022/08/12 16:13:34;;;;;;;3.40;2.58;;;;;;;;;;5068911;28;20180;-64
2022/08/12 16:16:02;;;;;;;4.20;2.50;;;;;;;;;;5054646;28;20176;-66
2022/08/12 16:18:28;;;;;;;3.58;2.47;;;;;;;;;;5059292;28;20173;-65
2022/08/12 16:20:54;;;;;;;5.03;2.75;;;;;;;;;;5061357;28;20313;-65
2022/08/12 16:23:21;;;;;;;4.20;2.38;;;;;;;;;;5063807;28;20259;-66
2022/08/12 16:25:48;;;;;;;4.90;2.70;;;;;;;;;;5057618;28;20199;-66
2022/08/12 16:28:14;;;;;;;3.85;2.60;;;;;;;;;;5066662;28;20228;-66
2022/08/12 16:30:40;;;;;;;3.03;2.65;;;;;;;;;;5053854;28;20619;-66
2022/08/12 16:33:13;;;;;;;3.88;2.80;;;;;;;;;;5060064;28;20193;-66
2022/08/12 16:35:41;;;;;;;3.70;2.60;;;;;;;;;;5056075;28;20362;-65
2022/08/12 16:38:08;;;;;;;3.88;2.38;;;;;;;;;;5054699;28;20219;-65
2022/08/12 16:40:35;;;;;;;7.20;2.67;;;;;;;;;;5046304;28;20267;-66